Time;durP1;ratioP1;P1;durP2;ratioP2;P2;SDS_P1;SDS_P2;PMS_P1;PMS_P2;Temp;Humidity;BMP_temperature;BMP_pressure;BME280_temperature;BME280_humidity;BME280_pressure;Samples;Min_cycle;Max_cycle;Signal;HPM_P1;HPM_P2
2021/12/01 00:01:02;;;;;;;2.10;1.17;;;7.60;99.90;;;;;;4975817;28;20038;-88
2021/12/01 00:03:27;;;;;;;0.65;0.65;;;7.70;99.90;;;;;;4998476;28;20153;-88
2021/12/01 00:05:53;;;;;;;0.70;0.70;;;7.70;99.90;;;;;;4978201;28;20043;-88
2021/12/01 00:08:19;;;;;;;0.90;0.90;;;7.70;99.90;;;;;;4984569;28;20054;-89
2021/12/01 00:10:46;;;;;;;0.55;0.55;;;7.80;99.90;;;;;;4978174;28;20121;-89
2021/12/01 00:13:15;;;;;;;0.60;0.60;;;7.70;99.90;;;;;;4977203;28;20552;-88
2021/12/01 00:15:43;;;;;;;0.68;0.68;;;7.80;99.90;;;;;;5000061;28;20069;-89
2021/12/01 00:18:09;;;;;;;1.45;1.35;;;7.90;99.90;;;;;;4993304;28;20110;-87
2021/12/01 00:20:35;;;;;;;0.70;0.70;;;7.90;99.90;;;;;;4986542;28;20053;-89
2021/12/01 00:23:02;;;;;;;0.88;0.88;;;8.00;99.90;;;;;;4995728;28;20116;-88
2021/12/01 00:25:29;;;;;;;1.45;1.35;;;8.10;99.90;;;;;;4983320;28;20094;-89
2021/12/01 00:27:55;;;;;;;0.75;0.75;;;8.10;99.90;;;;;;5003968;28;20053;-88
2021/12/01 00:30:30;;;;;;;1.20;1.05;;;8.00;99.90;;;;;;4983580;28;20058;-88
2021/12/01 00:32:56;;;;;;;1.73;1.20;;;8.10;99.90;;;;;;4985499;28;20085;-88
2021/12/01 00:35:23;;;;;;;1.30;1.20;;;8.20;99.90;;;;;;4984578;28;20042;-88
2021/12/01 00:37:51;;;;;;;1.00;1.00;;;8.20;99.90;;;;;;4990565;28;20050;-90
2021/12/01 00:40:17;;;;;;;0.98;0.98;;;8.40;99.90;;;;;;4981701;28;20046;-88
2021/12/01 00:42:45;;;;;;;0.70;0.70;;;8.50;99.90;;;;;;4999218;28;20038;-88
2021/12/01 00:45:17;;;;;;;0.85;0.85;;;8.50;99.90;;;;;;4977590;28;20133;-88
2021/12/01 00:47:46;;;;;;;0.90;0.90;;;8.40;99.90;;;;;;4980814;28;20046;-89
2021/12/01 00:50:24;;;;;;;0.80;0.80;;;8.40;99.90;;;;;;4984825;28;20076;-89
2021/12/01 00:52:55;;;;;;;1.13;1.02;;;8.30;99.90;;;;;;4977265;28;20098;-87
2021/12/01 00:55:26;;;;;;;0.85;0.80;;;8.40;99.90;;;;;;4982941;28;20084;-88
2021/12/01 00:57:57;;;;;;;0.88;0.88;;;8.40;99.90;;;;;;4984934;28;20046;-88
2021/12/01 01:00:32;;;;;;;1.10;1.10;;;8.40;99.90;;;;;;4978619;28;20165;-88
2021/12/01 01:03:03;;;;;;;0.85;0.85;;;8.40;99.90;;;;;;4984682;28;20046;-88
2021/12/01 01:05:39;;;;;;;2.33;1.17;;;8.50;99.90;;;;;;4973438;28;20117;-88
2021/12/01 01:08:08;;;;;;;0.70;0.70;;;8.40;99.90;;;;;;4984564;28;20069;-89
2021/12/01 01:16:24;;;;;;;1.23;1.02;;;8.50;99.90;;;;;;5000034;28;20053;-89
2021/12/01 01:18:53;;;;;;;1.98;0.95;;;8.50;99.90;;;;;;4984463;28;20038;-88
2021/12/01 01:21:20;;;;;;;0.60;0.60;;;8.50;99.90;;;;;;4984626;28;20050;-88
2021/12/01 01:23:48;;;;;;;2.30;2.13;;;8.50;99.90;;;;;;4989182;28;20081;-89
2021/12/01 01:26:18;;;;;;;1.00;0.90;;;8.50;99.90;;;;;;4983552;28;20043;-88
2021/12/01 01:28:44;;;;;;;0.93;0.93;;;8.60;99.90;;;;;;4984201;28;20134;-88
2021/12/01 01:31:14;;;;;;;0.70;0.70;;;8.60;99.90;;;;;;4980266;28;20101;-89
2021/12/01 01:33:45;;;;;;;0.70;0.70;;;8.80;99.90;;;;;;4984762;28;20062;-89
2021/12/01 01:36:23;;;;;;;1.10;1.10;;;8.70;99.90;;;;;;4985081;28;20054;-89
2021/12/01 01:38:49;;;;;;;0.90;0.90;;;8.60;99.90;;;;;;4997102;28;20050;-88
2021/12/01 01:41:30;;;;;;;6.82;1.48;;;8.70;99.90;;;;;;4978548;28;20057;-89
2021/12/01 01:44:34;;;;;;;2.55;2.35;;;8.70;99.90;;;;;;4983888;28;20050;-90
2021/12/01 01:47:13;;;;;;;1.35;1.27;;;8.70;99.90;;;;;;4946713;28;20690;-89
2021/12/01 01:52:52;;;;;;;2.30;1.63;;;8.80;99.90;;;;;;4998273;28;20050;-90
2021/12/01 01:55:39;;;;;;;0.70;0.70;;;8.80;99.90;;;;;;4982599;28;20074;-88
2021/12/01 01:58:14;;;;;;;;;;;8.80;99.90;;;;;;4984835;28;20163;-88
2021/12/01 02:01:12;;;;;;;0.88;0.88;;;8.80;99.90;;;;;;4991392;28;19930;-89
2021/12/01 02:03:46;;;;;;;5.57;3.03;;;8.80;99.90;;;;;;4986038;28;20098;-87
2021/12/01 02:06:22;;;;;;;1.55;1.13;;;8.80;99.90;;;;;;5004842;28;20042;-89
2021/12/01 02:09:21;;;;;;;0.95;0.95;;;8.90;99.90;;;;;;4987882;28;20074;-89
2021/12/01 02:11:47;;;;;;;0.50;0.50;;;8.90;99.90;;;;;;4987475;28;20302;-89
2021/12/01 02:14:15;;;;;;;0.73;0.73;;;9.00;99.90;;;;;;4989751;28;20045;-89
2021/12/01 02:17:02;;;;;;;0.60;0.60;;;8.90;99.90;;;;;;4989209;28;20046;-89
2021/12/01 02:19:43;;;;;;;0.95;0.95;;;8.80;99.90;;;;;;4977508;28;20047;-89
2021/12/01 02:22:13;;;;;;;0.52;0.52;;;8.90;99.90;;;;;;4987889;28;20050;-88
2021/12/01 02:24:46;;;;;;;0.70;0.70;;;9.00;99.90;;;;;;4988158;28;20055;-89
2021/12/01 02:27:25;;;;;;;0.60;0.60;;;8.90;99.90;;;;;;4988672;28;20078;-89
2021/12/01 02:30:11;;;;;;;;;;;;;;;;;;;;;
2021/12/01 02:33:04;;;;;;;0.60;0.60;;;9.00;99.90;;;;;;4992626;28;20066;-89
2021/12/01 02:35:33;;;;;;;0.60;0.60;;;;;;;;;;5001185;28;20045;-91
2021/12/01 02:38:06;;;;;;;0.55;0.55;;;9.00;99.90;;;;;;4990824;28;20046;-89
2021/12/01 02:40:34;;;;;;;0.50;0.50;;;8.90;99.90;;;;;;4989907;28;20046;-90
2021/12/01 02:43:58;;;;;;;0.60;0.60;;;9.00;99.90;;;;;;4973138;28;20054;-90
2021/12/01 02:50:56;;;;;;;0.82;0.82;;;9.00;99.90;;;;;;4962746;28;20062;-89
2021/12/01 02:53:46;;;;;;;0.60;0.60;;;8.90;99.90;;;;;;4953399;28;20055;-89
2021/12/01 02:56:17;;;;;;;0.50;0.50;;;9.00;99.90;;;;;;4943116;28;20069;-91
2021/12/01 03:01:37;;;;;;;0.68;0.68;;;9.00;99.90;;;;;;5047202;23;20059;-89
2021/12/01 03:07:43;;;;;;;0.55;0.55;;;9.00;99.90;;;;;;5000545;28;20077;-88
2021/12/01 03:10:23;;;;;;;0.60;0.60;;;9.10;99.90;;;;;;4993844;28;20112;-89
2021/12/01 03:13:13;;;;;;;0.60;0.60;;;9.20;99.90;;;;;;4988681;28;20046;-90
2021/12/01 03:15:42;;;;;;;0.80;0.80;;;9.20;99.90;;;;;;4982159;28;20050;-90
2021/12/01 03:18:17;;;;;;;0.50;0.50;;;9.00;99.90;;;;;;4981250;28;20050;-90
2021/12/01 03:20:52;;;;;;;0.50;0.50;;;9.20;99.90;;;;;;4975725;28;20054;-90
2021/12/01 03:23:57;;;;;;;0.57;0.57;;;9.20;99.90;;;;;;4984382;28;20057;-91
2021/12/01 03:26:28;;;;;;;0.50;0.50;;;9.10;99.90;;;;;;4963553;28;20491;-88
2021/12/01 03:29:14;;;;;;;0.60;0.60;;;9.20;99.90;;;;;;4982440;28;20042;-90
2021/12/01 03:31:40;;;;;;;0.50;0.50;;;9.20;99.90;;;;;;4981492;28;20086;-86
2021/12/01 03:34:06;;;;;;;0.60;0.60;;;9.20;99.90;;;;;;4984740;28;20102;-89
2021/12/01 03:36:34;;;;;;;1.95;1.85;;;9.10;99.90;;;;;;4986717;28;20715;-90
2021/12/01 03:39:01;;;;;;;0.50;0.50;;;9.30;99.90;;;;;;4987277;28;20070;-89
2021/12/01 03:41:40;;;;;;;0.50;0.50;;;9.30;99.90;;;;;;4987626;28;20073;-89
2021/12/01 03:44:08;;;;;;;0.60;0.60;;;9.20;99.90;;;;;;4985815;28;20069;-90
2021/12/01 03:47:05;;;;;;;0.93;0.93;;;9.20;99.90;;;;;;5004320;28;20049;-90
2021/12/01 03:49:40;;;;;;;0.50;0.50;;;9.30;99.90;;;;;;4993977;28;20042;-90
2021/12/01 03:52:16;;;;;;;4.35;1.52;;;9.10;99.90;;;;;;4987035;28;20046;-90
2021/12/01 03:55:05;;;;;;;2.92;2.15;;;9.20;99.90;;;;;;4978933;28;20138;-88
2021/12/01 03:57:45;;;;;;;;;;;;;;;;;;;;;
2021/12/01 04:00:15;;;;;;;;;;;9.30;99.90;;;;;;5008478;28;20073;-89
2021/12/01 04:02:43;;;;;;;0.70;0.70;;;9.30;99.90;;;;;;4986092;28;19922;-89
2021/12/01 04:05:30;;;;;;;0.57;0.57;;;9.20;99.90;;;;;;4987586;28;20107;-88
2021/12/01 04:08:01;;;;;;;0.60;0.60;;;9.10;99.90;;;;;;4975240;28;20112;-90
2021/12/01 04:10:44;;;;;;;1.38;1.30;;;9.30;99.90;;;;;;4986984;28;20044;-89
2021/12/01 04:13:10;;;;;;;0.60;0.60;;;9.10;99.90;;;;;;4980469;28;20093;-90
2021/12/01 04:15:35;;;;;;;2.38;1.63;;;9.20;99.90;;;;;;4978829;28;20054;-88
2021/12/01 04:18:18;;;;;;;0.60;0.60;;;9.20;99.90;;;;;;4985462;28;20077;-89
2021/12/01 04:20:44;;;;;;;0.60;0.60;;;9.10;99.90;;;;;;5009409;28;20042;-88
2021/12/01 04:23:10;;;;;;;0.60;0.60;;;9.10;99.90;;;;;;4982412;28;20082;-87
2021/12/01 04:25:38;;;;;;;0.60;0.60;;;9.10;99.90;;;;;;5001422;28;20081;-87
2021/12/01 04:28:04;;;;;;;0.60;0.60;;;9.00;99.90;;;;;;4984907;28;20096;-88
2021/12/01 04:30:29;;;;;;;0.50;0.50;;;8.90;99.90;;;;;;4984755;28;20133;-89
2021/12/01 04:33:06;;;;;;;;;;;;;;;;;;;;;
2021/12/01 04:35:40;;;;;;;2.47;1.20;;;9.00;99.90;;;;;;5004656;28;20034;-88
2021/12/01 04:38:11;;;;;;;0.80;0.80;;;9.10;99.90;;;;;;4996752;28;20034;-90
2021/12/01 04:40:36;;;;;;;0.60;0.60;;;9.10;99.90;;;;;;4996947;28;20034;-88
2021/12/01 04:43:02;;;;;;;0.60;0.60;;;9.00;99.90;;;;;;4993137;28;20035;-89
2021/12/01 04:45:31;;;;;;;0.60;0.60;;;9.10;99.90;;;;;;4993037;28;20073;-88
2021/12/01 04:48:00;;;;;;;0.60;0.60;;;9.10;99.90;;;;;;5004386;28;20026;-88
2021/12/01 04:50:27;;;;;;;0.60;0.60;;;9.00;99.90;;;;;;5012627;28;20046;-88
2021/12/01 04:52:58;;;;;;;0.50;0.50;;;9.00;99.90;;;;;;4995748;28;20042;-88
2021/12/01 04:55:25;;;;;;;0.70;0.70;;;9.10;99.90;;;;;;4994804;28;20038;-88
2021/12/01 04:57:57;;;;;;;0.60;0.60;;;9.00;99.90;;;;;;5000843;28;20070;-88
2021/12/01 05:00:28;;;;;;;0.60;0.60;;;9.00;99.90;;;;;;4999007;28;20065;-89
2021/12/01 05:02:54;;;;;;;0.50;0.50;;;9.00;99.90;;;;;;4984019;28;20521;-88
2021/12/01 05:05:29;;;;;;;0.57;0.57;;;9.00;99.90;;;;;;4985958;28;20070;-90
2021/12/01 05:08:02;;;;;;;0.65;0.65;;;9.20;99.90;;;;;;4984875;28;20035;-88
2021/12/01 05:10:28;;;;;;;0.50;0.50;;;9.10;99.90;;;;;;4977312;28;20039;-88
2021/12/01 05:12:56;;;;;;;0.60;0.60;;;9.00;99.90;;;;;;4973484;28;20084;-89
2021/12/01 05:15:22;;;;;;;0.60;0.60;;;9.00;99.90;;;;;;4975300;28;20042;-88
2021/12/01 05:17:49;;;;;;;0.55;0.55;;;9.00;99.90;;;;;;4983387;28;20483;-88
2021/12/01 05:20:15;;;;;;;0.60;0.60;;;9.20;99.90;;;;;;4986101;28;20061;-87
2021/12/01 05:22:42;;;;;;;0.60;0.60;;;9.00;99.90;;;;;;5006395;28;20034;-87
2021/12/01 05:25:16;;;;;;;0.60;0.60;;;9.00;99.90;;;;;;4987810;28;20054;-88
2021/12/01 05:27:42;;;;;;;0.70;0.70;;;8.90;99.90;;;;;;4987064;28;20054;-88
2021/12/01 05:30:08;;;;;;;0.60;0.60;;;8.90;99.90;;;;;;5002973;28;20050;-86
2021/12/01 05:32:34;;;;;;;0.50;0.50;;;8.90;99.90;;;;;;5002721;28;20070;-87
2021/12/01 05:35:00;;;;;;;0.60;0.60;;;8.90;99.90;;;;;;4987934;28;20049;-87
2021/12/01 05:37:26;;;;;;;0.50;0.50;;;8.90;99.90;;;;;;4987844;28;20046;-86
2021/12/01 05:39:52;;;;;;;0.50;0.50;;;8.90;99.90;;;;;;4987682;28;20116;-86
2021/12/01 05:42:17;;;;;;;0.60;0.60;;;8.80;99.90;;;;;;4982090;28;20042;-86
2021/12/01 05:44:44;;;;;;;0.60;0.60;;;8.80;99.90;;;;;;5003633;28;20104;-87
2021/12/01 05:47:10;;;;;;;0.68;0.68;;;9.00;99.90;;;;;;5001973;28;20112;-88
2021/12/01 05:49:45;;;;;;;0.60;0.60;;;8.80;99.90;;;;;;4987820;28;20111;-88
2021/12/01 05:52:13;;;;;;;0.60;0.60;;;8.80;99.90;;;;;;4988276;28;20126;-88
2021/12/01 05:54:39;;;;;;;0.60;0.60;;;8.80;99.90;;;;;;5003791;28;20057;-89
2021/12/01 05:57:06;;;;;;;0.50;0.50;;;8.80;99.90;;;;;;5003662;28;20030;-88
2021/12/01 05:59:32;;;;;;;0.60;0.60;;;8.80;99.90;;;;;;4987579;28;20054;-88
2021/12/01 06:01:58;;;;;;;0.57;0.57;;;8.80;99.90;;;;;;4983941;28;20038;-87
2021/12/01 06:04:27;;;;;;;0.60;0.60;;;8.80;99.90;;;;;;5001726;28;20136;-87
2021/12/01 06:06:53;;;;;;;0.90;0.90;;;8.90;99.90;;;;;;4987801;28;20061;-89
2021/12/01 06:09:19;;;;;;;0.85;0.85;;;8.80;99.90;;;;;;4988089;28;20054;-88
2021/12/01 06:11:48;;;;;;;0.60;0.60;;;8.80;99.90;;;;;;4987325;28;20038;-88
2021/12/01 06:14:16;;;;;;;1.17;0.98;;;8.80;99.90;;;;;;4987352;28;20040;-88
2021/12/01 06:16:43;;;;;;;0.60;0.60;;;8.70;99.90;;;;;;4983065;28;20057;-88
2021/12/01 06:19:09;;;;;;;0.60;0.60;;;8.70;99.90;;;;;;4986615;28;20034;-88
2021/12/01 06:21:38;;;;;;;0.60;0.60;;;8.70;99.90;;;;;;5003200;28;20038;-89
2021/12/01 06:24:04;;;;;;;0.50;0.50;;;8.70;99.90;;;;;;4983965;28;20207;-89
2021/12/01 06:26:29;;;;;;;0.60;0.60;;;8.70;99.90;;;;;;4984467;28;20045;-88
2021/12/01 06:29:00;;;;;;;0.57;0.57;;;8.70;99.90;;;;;;4987308;28;20057;-89
2021/12/01 06:31:26;;;;;;;0.52;0.52;;;8.70;99.90;;;;;;4985675;28;20100;-88
2021/12/01 06:33:52;;;;;;;0.60;0.60;;;8.60;99.90;;;;;;4983451;28;20047;-89
2021/12/01 06:36:20;;;;;;;0.50;0.50;;;8.70;99.90;;;;;;4979854;28;20042;-90
2021/12/01 06:38:46;;;;;;;0.60;0.60;;;8.70;99.90;;;;;;5004527;28;20070;-88
2021/12/01 06:41:11;;;;;;;0.60;0.60;;;8.60;99.90;;;;;;4987894;28;20034;-89
2021/12/01 06:43:39;;;;;;;0.60;0.60;;;8.60;99.90;;;;;;4988434;28;20043;-90
2021/12/01 06:46:08;;;;;;;0.60;0.60;;;8.60;99.90;;;;;;4986065;28;20129;-87
2021/12/01 06:48:36;;;;;;;0.68;0.68;;;8.60;99.90;;;;;;5001625;28;20496;-90
2021/12/01 06:51:02;;;;;;;0.70;0.70;;;8.70;99.90;;;;;;4980638;28;20053;-89
2021/12/01 06:53:38;;;;;;;0.60;0.60;;;8.50;99.90;;;;;;4987373;28;20129;-90
2021/12/01 06:56:04;;;;;;;0.60;0.60;;;8.60;99.90;;;;;;4990566;28;20134;-89
2021/12/01 06:58:30;;;;;;;0.60;0.60;;;8.50;99.90;;;;;;4986365;28;20049;-90
2021/12/01 07:00:55;;;;;;;0.50;0.50;;;8.50;99.90;;;;;;4977619;28;20101;-88
2021/12/01 07:03:21;;;;;;;0.60;0.60;;;8.50;99.90;;;;;;4984406;28;20042;-87
2021/12/01 07:05:46;;;;;;;0.50;0.50;;;8.50;99.90;;;;;;4977187;28;20053;-88
2021/12/01 07:08:12;;;;;;;0.52;0.52;;;8.50;99.90;;;;;;4984701;28;20072;-89
2021/12/01 07:10:39;;;;;;;0.60;0.60;;;8.40;99.90;;;;;;4986105;28;20041;-87
2021/12/01 07:13:05;;;;;;;0.60;0.60;;;8.50;99.90;;;;;;4984920;28;20046;-87
2021/12/01 07:15:34;;;;;;;0.65;0.65;;;8.50;99.90;;;;;;5002901;28;20152;-89
2021/12/01 07:17:59;;;;;;;0.60;0.60;;;8.50;99.90;;;;;;4986506;28;20081;-89
2021/12/01 07:20:28;;;;;;;0.60;0.60;;;8.40;99.90;;;;;;4983649;28;20043;-89
2021/12/01 07:22:54;;;;;;;0.60;0.60;;;8.50;99.90;;;;;;4985995;28;20077;-88
2021/12/01 07:25:19;;;;;;;0.60;0.60;;;8.50;99.90;;;;;;4984193;28;20110;-89
2021/12/01 07:27:45;;;;;;;0.60;0.60;;;8.50;99.90;;;;;;4986120;28;20034;-88
2021/12/01 07:30:11;;;;;;;0.50;0.50;;;8.50;99.90;;;;;;4977291;28;20066;-87
2021/12/01 07:32:37;;;;;;;0.60;0.60;;;8.50;99.90;;;;;;4983838;28;20435;-87
2021/12/01 07:35:03;;;;;;;0.60;0.60;;;8.30;99.90;;;;;;4984355;28;20042;-88
2021/12/01 07:37:29;;;;;;;0.60;0.60;;;8.50;99.90;;;;;;4983404;28;20047;-86
2021/12/01 07:39:54;;;;;;;0.60;0.60;;;8.50;99.90;;;;;;4984560;28;20038;-86
2021/12/01 07:42:20;;;;;;;0.80;0.80;;;8.50;99.90;;;;;;4983811;28;20046;-86
2021/12/01 07:44:46;;;;;;;0.50;0.50;;;8.50;99.90;;;;;;4982020;28;20046;-85
2021/12/01 07:47:12;;;;;;;0.60;0.60;;;8.50;99.90;;;;;;4981904;28;20045;-86
2021/12/01 07:49:38;;;;;;;0.50;0.50;;;8.50;99.90;;;;;;4983403;28;20050;-85
2021/12/01 07:52:05;;;;;;;0.60;0.60;;;8.50;99.90;;;;;;4999852;28;20137;-89
2021/12/01 07:54:32;;;;;;;0.90;0.85;;;8.50;99.90;;;;;;4983449;28;20046;-87
2021/12/01 07:56:58;;;;;;;0.60;0.60;;;8.60;99.90;;;;;;4981785;28;20069;-86
2021/12/01 07:59:24;;;;;;;0.50;0.50;;;8.50;99.90;;;;;;4980788;28;20043;-85
2021/12/01 08:01:50;;;;;;;0.60;0.60;;;8.60;99.90;;;;;;4982774;28;20514;-86
2021/12/01 08:04:15;;;;;;;0.60;0.60;;;8.60;99.90;;;;;;4984890;28;20207;-87
2021/12/01 08:06:43;;;;;;;0.50;0.50;;;8.60;99.90;;;;;;4983322;28;20041;-89
2021/12/01 08:09:09;;;;;;;0.60;0.60;;;8.70;99.90;;;;;;4985520;28;20042;-88
2021/12/01 08:11:35;;;;;;;0.57;0.57;;;8.60;99.90;;;;;;5000208;28;20049;-87
2021/12/01 08:14:00;;;;;;;0.50;0.50;;;8.70;99.90;;;;;;4983919;28;20172;-87
2021/12/01 08:16:26;;;;;;;0.80;0.80;;;8.60;99.90;;;;;;4981832;28;20390;-85
2021/12/01 08:18:53;;;;;;;0.60;0.60;;;8.70;99.90;;;;;;4984173;28;20046;-87
2021/12/01 08:21:20;;;;;;;0.60;0.60;;;8.60;99.90;;;;;;4993174;28;20129;-87
2021/12/01 08:23:46;;;;;;;0.60;0.60;;;8.70;99.90;;;;;;4999213;28;20042;-86
2021/12/01 08:26:11;;;;;;;0.70;0.70;;;8.70;99.90;;;;;;5000274;28;20046;-86
2021/12/01 08:28:37;;;;;;;0.60;0.60;;;8.70;99.90;;;;;;4979881;28;20066;-88
2021/12/01 08:31:05;;;;;;;0.60;0.60;;;8.80;99.90;;;;;;4999326;28;20045;-87
2021/12/01 08:33:31;;;;;;;0.70;0.70;;;8.70;99.90;;;;;;4983707;28;20093;-87
2021/12/01 08:35:57;;;;;;;0.82;0.82;;;8.80;99.90;;;;;;4980330;28;20042;-86
2021/12/01 08:38:22;;;;;;;0.60;0.60;;;8.80;99.90;;;;;;4976257;28;20051;-86
2021/12/01 08:40:48;;;;;;;0.50;0.50;;;8.80;99.90;;;;;;4983106;28;20046;-84
2021/12/01 08:43:14;;;;;;;0.55;0.55;;;8.80;99.90;;;;;;4982788;28;20050;-85
2021/12/01 08:45:39;;;;;;;0.60;0.60;;;8.80;99.90;;;;;;4983094;28;20038;-85
2021/12/01 08:48:05;;;;;;;0.60;0.60;;;8.80;99.90;;;;;;4975896;28;20846;-88
2021/12/01 08:50:33;;;;;;;1.38;1.27;;;8.90;99.90;;;;;;4976324;28;20056;-88
2021/12/01 08:52:59;;;;;;;1.42;1.40;;;8.90;99.90;;;;;;5000246;28;20048;-88
2021/12/01 08:55:28;;;;;;;0.50;0.50;;;8.90;99.90;;;;;;4983885;28;20042;-89
2021/12/01 08:57:53;;;;;;;0.88;0.88;;;8.90;99.90;;;;;;4981343;28;20054;-87
2021/12/01 09:00:20;;;;;;;1.13;1.02;;;8.90;99.90;;;;;;5001096;28;20047;-87
2021/12/01 09:02:46;;;;;;;0.60;0.60;;;9.00;99.90;;;;;;4979650;28;20054;-87
2021/12/01 09:05:12;;;;;;;0.60;0.60;;;8.90;99.90;;;;;;5001199;28;20039;-86
2021/12/01 09:07:38;;;;;;;0.50;0.50;;;8.90;99.90;;;;;;4982898;28;20054;-86
2021/12/01 09:10:06;;;;;;;0.50;0.50;;;9.00;99.90;;;;;;4980713;28;20403;-88
2021/12/01 09:12:32;;;;;;;0.55;0.55;;;9.00;99.90;;;;;;4997202;28;20049;-88
2021/12/01 09:14:58;;;;;;;0.60;0.60;;;9.00;99.90;;;;;;4985098;28;20096;-88
2021/12/01 09:17:27;;;;;;;0.60;0.60;;;9.00;99.90;;;;;;4972061;28;20042;-89
2021/12/01 09:19:53;;;;;;;0.60;0.60;;;9.00;99.90;;;;;;4985725;28;20042;-86
2021/12/01 09:22:25;;;;;;;1.45;1.35;;;8.90;99.90;;;;;;4985799;28;20080;-90
2021/12/01 09:24:50;;;;;;;0.50;0.50;;;8.90;99.90;;;;;;4982252;28;20042;-86
2021/12/01 09:27:16;;;;;;;1.13;1.13;;;9.00;99.90;;;;;;5002240;28;20399;-87
2021/12/01 09:29:42;;;;;;;1.00;0.90;;;9.00;99.90;;;;;;4999594;28;20042;-86
2021/12/01 09:32:08;;;;;;;0.70;0.70;;;8.90;99.90;;;;;;4982501;28;20391;-86
2021/12/01 09:34:33;;;;;;;0.50;0.50;;;9.10;99.90;;;;;;4999706;28;20050;-87
2021/12/01 09:36:59;;;;;;;0.60;0.60;;;8.80;99.90;;;;;;4983241;28;20053;-86
2021/12/01 09:39:25;;;;;;;0.60;0.60;;;8.90;99.90;;;;;;4983969;28;20269;-86
2021/12/01 09:41:52;;;;;;;0.60;0.60;;;8.70;99.90;;;;;;4993228;28;20106;-88
2021/12/01 09:44:18;;;;;;;0.60;0.60;;;8.70;99.90;;;;;;4983843;28;20054;-89
2021/12/01 09:46:44;;;;;;;0.52;0.52;;;8.70;99.90;;;;;;4983025;28;20052;-86
2021/12/01 09:49:09;;;;;;;0.52;0.52;;;8.80;99.90;;;;;;5000036;28;20085;-88
2021/12/01 09:51:36;;;;;;;0.60;0.60;;;8.90;99.90;;;;;;4999807;28;20112;-88
2021/12/01 09:54:03;;;;;;;0.50;0.50;;;8.80;99.90;;;;;;4983253;28;20046;-88
2021/12/01 09:56:30;;;;;;;0.70;0.70;;;8.70;99.90;;;;;;4980491;28;20073;-87
2021/12/01 09:58:57;;;;;;;0.60;0.60;;;8.70;99.90;;;;;;4983463;28;20038;-86
2021/12/01 10:01:24;;;;;;;0.60;0.60;;;8.70;99.90;;;;;;4981680;28;20081;-88
2021/12/01 10:03:51;;;;;;;0.60;0.60;;;8.90;99.90;;;;;;4999014;28;20530;-89
2021/12/01 10:06:21;;;;;;;0.60;0.60;;;8.90;99.90;;;;;;4977721;28;20050;-88
2021/12/01 10:09:04;;;;;;;0.60;0.60;;;8.80;99.90;;;;;;4986873;28;20042;-87
2021/12/01 10:11:47;;;;;;;0.70;0.70;;;8.80;99.90;;;;;;5003586;28;20049;-88
2021/12/01 10:14:18;;;;;;;0.60;0.60;;;8.90;99.90;;;;;;4988006;28;20042;-89
2021/12/01 10:16:45;;;;;;;0.60;0.60;;;8.90;99.90;;;;;;4986896;28;20077;-88
2021/12/01 10:19:16;;;;;;;0.60;0.60;;;8.90;99.90;;;;;;5003823;28;20081;-88
2021/12/01 10:21:47;;;;;;;1.50;1.45;;;9.00;99.90;;;;;;4987008;28;20110;-89
2021/12/01 10:24:16;;;;;;;0.80;0.80;;;9.00;99.90;;;;;;5004600;28;20054;-87
2021/12/01 10:26:51;;;;;;;0.60;0.60;;;9.00;99.90;;;;;;5015182;28;20051;-91
2021/12/01 10:29:19;;;;;;;3.83;1.02;;;9.00;99.90;;;;;;4985455;28;20365;-87
2021/12/01 10:31:52;;;;;;;1.27;1.05;;;9.00;99.90;;;;;;4984211;28;20041;-90
2021/12/01 10:34:24;;;;;;;0.55;0.55;;;9.00;99.90;;;;;;5005448;28;20125;-92
2021/12/01 10:37:05;;;;;;;0.60;0.60;;;8.90;99.90;;;;;;5001700;28;20070;-88
2021/12/01 10:39:31;;;;;;;0.80;0.80;;;8.90;99.90;;;;;;4987398;28;20106;-87
2021/12/01 10:42:04;;;;;;;0.70;0.70;;;8.90;99.90;;;;;;4986922;28;20077;-89
2021/12/01 10:44:30;;;;;;;1.15;1.02;;;8.90;99.90;;;;;;4983911;28;20070;-85
2021/12/01 10:46:55;;;;;;;0.65;0.65;;;9.00;99.90;;;;;;4982744;28;20049;-87
2021/12/01 10:49:34;;;;;;;0.60;0.60;;;8.90;99.90;;;;;;4980711;28;20047;-89
2021/12/01 10:52:03;;;;;;;0.60;0.60;;;9.00;99.90;;;;;;5003209;28;20034;-89
2021/12/01 10:54:28;;;;;;;5.78;4.60;;;9.00;99.90;;;;;;4985987;28;20078;-86
2021/12/01 10:57:21;;;;;;;0.70;0.70;;;8.90;99.90;;;;;;4983893;28;20038;-90
2021/12/01 10:59:49;;;;;;;2.47;1.30;;;8.90;99.90;;;;;;4981601;28;20042;-90
2021/12/01 11:02:19;;;;;;;0.60;0.60;;;8.80;99.90;;;;;;5001825;28;20042;-91
2021/12/01 11:04:52;;;;;;;0.50;0.50;;;8.80;99.90;;;;;;4998084;28;20038;-87
2021/12/01 11:07:28;;;;;;;0.60;0.60;;;8.70;99.90;;;;;;4969801;28;20046;-88
2021/12/01 11:10:09;;;;;;;0.63;0.63;;;8.70;99.90;;;;;;4976204;28;20085;-91
2021/12/01 11:12:35;;;;;;;0.60;0.60;;;8.70;99.90;;;;;;5000424;28;20053;-88
2021/12/01 11:15:35;;;;;;;1.45;0.80;;;8.70;99.90;;;;;;4981953;28;20035;-89
2021/12/01 11:18:01;;;;;;;0.70;0.70;;;8.80;99.90;;;;;;4982475;28;20066;-90
2021/12/01 11:20:41;;;;;;;0.60;0.60;;;8.90;99.90;;;;;;4981042;28;20100;-88
2021/12/01 11:23:24;;;;;;;0.85;0.85;;;8.80;99.90;;;;;;4998117;28;20034;-89
2021/12/01 11:25:55;;;;;;;0.60;0.60;;;8.80;99.90;;;;;;5001243;28;20045;-87
2021/12/01 11:28:25;;;;;;;0.50;0.50;;;8.80;99.90;;;;;;4977397;28;20046;-87
2021/12/01 11:30:55;;;;;;;2.28;1.08;;;8.80;99.90;;;;;;4999940;28;20041;-88
2021/12/01 11:33:22;;;;;;;0.80;0.80;;;8.80;99.90;;;;;;5001207;28;20140;-87
2021/12/01 11:35:54;;;;;;;0.77;0.77;;;8.80;99.90;;;;;;4983817;28;20038;-88
2021/12/01 11:38:20;;;;;;;2.28;2.08;;;9.10;99.90;;;;;;4984336;28;20103;-89
2021/12/01 11:40:46;;;;;;;0.60;0.60;;;9.30;99.90;;;;;;4977824;28;20109;-85
2021/12/01 11:43:13;;;;;;;0.63;0.63;;;9.10;99.90;;;;;;4995842;28;20054;-86
2021/12/01 11:45:41;;;;;;;1.92;1.80;;;9.20;99.90;;;;;;4982018;28;20053;-86
2021/12/01 11:48:18;;;;;;;0.63;0.63;;;9.00;99.90;;;;;;4999590;28;20046;-88
2021/12/01 11:51:05;;;;;;;5.70;2.45;;;9.00;99.90;;;;;;4978405;28;20070;-87
2021/12/01 11:53:40;;;;;;;6.90;1.38;;;9.00;99.90;;;;;;4998267;28;20081;-86
2021/12/01 11:56:26;;;;;;;1.02;1.02;;;8.90;99.90;;;;;;4983871;28;20049;-88
2021/12/01 11:59:13;;;;;;;0.90;0.90;;;8.90;99.90;;;;;;4983305;28;20066;-87
2021/12/01 12:01:41;;;;;;;0.60;0.60;;;8.80;99.90;;;;;;4980113;28;20034;-87
2021/12/01 12:04:06;;;;;;;1.25;0.60;;;8.70;99.90;;;;;;4983714;28;20053;-87
2021/12/01 12:06:35;;;;;;;21.65;4.68;;;8.70;99.90;;;;;;4984266;28;20038;-88
2021/12/01 12:09:05;;;;;;;1.35;1.27;;;8.60;99.90;;;;;;4984373;28;20038;-88
2021/12/01 12:11:44;;;;;;;0.93;0.93;;;8.20;99.90;;;;;;4983224;28;20448;-87
2021/12/01 12:14:34;;;;;;;0.60;0.60;;;8.50;99.90;;;;;;4994866;28;20157;-87
2021/12/01 12:17:19;;;;;;;0.60;0.60;;;8.70;99.90;;;;;;4982209;28;20039;-91
2021/12/01 12:19:54;;;;;;;;;;;8.50;99.90;;;;;;4980260;28;20045;-89
2021/12/01 12:22:52;;;;;;;6.63;2.10;;;8.40;99.90;;;;;;4982688;28;19922;-87
2021/12/01 12:25:57;;;;;;;1.38;1.33;;;8.40;99.90;;;;;;4991474;28;20204;-87
2021/12/01 12:28:35;;;;;;;5.03;2.80;;;8.40;99.90;;;;;;4982722;28;20039;-88
2021/12/01 12:31:05;;;;;;;0.60;0.60;;;8.50;99.90;;;;;;4980615;28;20070;-85
2021/12/01 12:33:33;;;;;;;1.33;1.13;;;8.50;99.90;;;;;;5000066;28;20113;-85
2021/12/01 12:36:03;;;;;;;0.60;0.60;;;8.50;99.90;;;;;;4981682;28;20034;-87
2021/12/01 12:38:30;;;;;;;2.72;2.38;;;8.70;99.90;;;;;;4984633;28;20106;-87
2021/12/01 12:41:07;;;;;;;1.42;0.80;;;8.50;99.90;;;;;;4999703;28;20053;-85
2021/12/01 12:43:33;;;;;;;2.10;1.23;;;8.50;99.90;;;;;;4997538;28;20478;-86
2021/12/01 12:46:06;;;;;;;0.70;0.70;;;8.50;99.90;;;;;;4984175;28;20101;-87
2021/12/01 12:48:41;;;;;;;0.60;0.60;;;8.30;99.90;;;;;;4981350;28;20059;-87
2021/12/01 12:51:12;;;;;;;10.13;4.47;;;8.20;99.90;;;;;;4984148;28;20129;-89
2021/12/01 12:54:04;;;;;;;0.70;0.70;;;8.10;99.90;;;;;;4980786;28;20050;-85
2021/12/01 12:56:37;;;;;;;0.70;0.70;;;8.00;99.90;;;;;;4977070;28;20062;-87
2021/12/01 12:59:21;;;;;;;0.70;0.70;;;7.90;99.90;;;;;;4999978;28;20132;-86
2021/12/01 13:01:53;;;;;;;0.60;0.60;;;8.00;99.90;;;;;;4979821;28;20050;-85
2021/12/01 13:05:07;;;;;;;0.60;0.60;;;7.90;99.90;;;;;;4981607;28;20105;-89
2021/12/01 13:07:44;;;;;;;10.43;3.42;;;7.90;99.90;;;;;;4979628;28;20711;-85
2021/12/01 13:10:24;;;;;;;1.33;1.23;;;7.90;99.90;;;;;;4988932;28;20038;-85
2021/12/01 13:12:50;;;;;;;1.27;1.23;;;7.90;99.90;;;;;;4992838;28;20089;-88
2021/12/01 13:15:21;;;;;;;0.93;0.93;;;8.00;99.90;;;;;;5000225;28;20046;-86
2021/12/01 13:17:52;;;;;;;0.60;0.60;;;8.00;99.90;;;;;;4983296;28;20069;-86
2021/12/01 13:20:19;;;;;;;0.80;0.80;;;8.00;99.90;;;;;;4982189;28;20062;-85
2021/12/01 13:23:13;;;;;;;0.80;0.80;;;8.00;99.90;;;;;;5000253;28;20053;-88
2021/12/01 13:25:42;;;;;;;0.70;0.70;;;8.00;99.90;;;;;;4978091;28;20043;-86
2021/12/01 13:28:10;;;;;;;0.60;0.60;;;7.90;99.90;;;;;;4975305;28;20122;-87
2021/12/01 13:30:54;;;;;;;0.60;0.60;;;7.90;99.90;;;;;;4982913;28;20053;-85
2021/12/01 13:33:19;;;;;;;0.77;0.77;;;7.90;99.90;;;;;;4983844;28;20042;-86
2021/12/01 13:35:45;;;;;;;0.60;0.60;;;8.00;99.90;;;;;;4999072;28;20874;-86
2021/12/01 13:38:11;;;;;;;0.93;0.93;;;7.90;99.90;;;;;;4998356;28;20041;-87
2021/12/01 13:40:39;;;;;;;0.60;0.60;;;7.90;99.90;;;;;;4983587;28;20047;-89